Time;durP1;ratioP1;P1;durP2;ratioP2;P2;SDS_P1;SDS_P2;PMS_P1;PMS_P2;Temp;Humidity;BMP_temperature;BMP_pressure;BME280_temperature;BME280_humidity;BME280_pressure;Samples;Min_cycle;Max_cycle;Signal;HPM_P1;HPM_P2
2022/11/12 00:00:03;;;;;;;4.90;1.42;;;;;;;;;;2089835;28;20021;-72
2022/11/12 00:01:22;;;;;;;6.50;1.70;;;;;;;;;;2092411;28;20450;-71
2022/11/12 00:02:41;;;;;;;5.40;2.05;;;;;;;;;;2092543;28;20042;-71
2022/11/12 00:04:00;;;;;;;7.78;1.40;;;;;;;;;;2089895;28;20444;-71
2022/11/12 00:05:22;;;;;;;7.22;1.98;;;;;;;;;;2089677;28;20071;-71
2022/11/12 00:06:41;;;;;;;5.70;1.70;;;;;;;;;;2092200;28;20029;-71
2022/11/12 00:08:00;;;;;;;5.28;1.77;;;;;;;;;;2090418;28;20029;-71
2022/11/12 00:09:19;;;;;;;8.48;2.03;;;;;;;;;;2090678;28;20041;-69
2022/11/12 00:10:38;;;;;;;9.65;1.98;;;;;;;;;;2091784;28;20033;-68
2022/11/12 00:11:57;;;;;;;3.28;1.10;;;;;;;;;;2088834;28;20049;-69
2022/11/12 00:13:16;;;;;;;7.20;1.65;;;;;;;;;;2088197;28;20060;-71
2022/11/12 00:14:35;;;;;;;4.90;1.50;;;;;;;;;;2091595;28;20025;-71
2022/11/12 00:15:54;;;;;;;3.83;1.55;;;;;;;;;;2088784;28;20491;-71
2022/11/12 00:17:13;;;;;;;5.13;1.40;;;;;;;;;;2092450;28;20037;-71
2022/11/12 00:18:31;;;;;;;5.55;1.75;;;;;;;;;;2091673;28;20021;-71
2022/11/12 00:19:51;;;;;;;8.13;1.73;;;;;;;;;;2089569;28;20100;-71
2022/11/12 00:21:09;;;;;;;7.35;1.77;;;;;;;;;;2093571;28;20025;-71
2022/11/12 00:22:28;;;;;;;7.68;1.92;;;;;;;;;;2090592;28;20914;-71
2022/11/12 00:23:47;;;;;;;6.55;1.63;;;;;;;;;;2090748;28;20044;-71
2022/11/12 00:25:06;;;;;;;8.93;2.05;;;;;;;;;;2092484;28;20021;-71
2022/11/12 00:26:25;;;;;;;3.97;1.40;;;;;;;;;;2091155;28;20369;-71
2022/11/12 00:27:44;;;;;;;7.75;1.75;;;;;;;;;;2089594;28;20036;-72
2022/11/12 00:29:04;;;;;;;5.78;1.88;;;;;;;;;;2094531;28;20033;-71
2022/11/12 00:30:23;;;;;;;4.82;1.85;;;;;;;;;;2088479;28;20091;-71
2022/11/12 00:31:42;;;;;;;8.50;1.73;;;;;;;;;;2090899;28;20025;-71
2022/11/12 00:33:02;;;;;;;8.98;2.17;;;;;;;;;;2089930;28;20033;-72
2022/11/12 00:34:20;;;;;;;4.50;1.27;;;;;;;;;;2088127;28;20112;-71
2022/11/12 00:35:40;;;;;;;5.47;1.70;;;;;;;;;;2090023;28;20021;-71
2022/11/12 00:36:59;;;;;;;4.68;1.58;;;;;;;;;;2094448;28;20060;-71
2022/11/12 00:38:18;;;;;;;6.07;1.60;;;;;;;;;;2091878;28;20477;-71
2022/11/12 00:39:37;;;;;;;4.97;1.38;;;;;;;;;;2091395;28;20104;-71
2022/11/12 00:40:58;;;;;;;4.00;1.65;;;;;;;;;;2092693;28;20104;-71
2022/11/12 00:42:17;;;;;;;9.13;1.20;;;;;;;;;;2089550;28;20381;-71
2022/11/12 00:43:36;;;;;;;5.50;1.38;;;;;;;;;;2090161;28;20032;-71
2022/11/12 00:44:55;;;;;;;6.13;1.50;;;;;;;;;;2091430;28;20520;-69
2022/11/12 00:46:14;;;;;;;6.30;1.50;;;;;;;;;;2092423;28;20041;-71
2022/11/12 00:47:33;;;;;;;7.90;1.77;;;;;;;;;;2091122;28;20045;-70
2022/11/12 00:48:52;;;;;;;4.75;1.58;;;;;;;;;;2093197;28;20032;-70
2022/11/12 00:50:11;;;;;;;5.85;1.52;;;;;;;;;;2091027;28;20589;-69
2022/11/12 00:51:30;;;;;;;3.90;1.65;;;;;;;;;;2092114;28;20025;-70
2022/11/12 00:52:50;;;;;;;6.55;1.58;;;;;;;;;;2092057;28;20495;-69
2022/11/12 00:54:09;;;;;;;4.28;1.52;;;;;;;;;;2090510;28;20490;-70
2022/11/12 00:55:28;;;;;;;7.57;1.58;;;;;;;;;;2089657;28;20077;-71
2022/11/12 00:56:47;;;;;;;6.95;1.70;;;;;;;;;;2094370;28;20033;-70
2022/11/12 00:58:06;;;;;;;6.00;1.55;;;;;;;;;;2089610;28;20056;-70
2022/11/12 00:59:25;;;;;;;5.65;1.60;;;;;;;;;;2090267;28;20458;-71
2022/11/12 01:00:44;;;;;;;4.88;1.67;;;;;;;;;;2089263;28;20047;-69
2022/11/12 01:02:03;;;;;;;4.38;1.42;;;;;;;;;;2090844;28;20033;-69
2022/11/12 01:03:22;;;;;;;6.03;1.38;;;;;;;;;;2092108;28;20033;-69
2022/11/12 01:04:41;;;;;;;7.97;2.03;;;;;;;;;;2093815;28;20042;-69
2022/11/12 01:06:20;;;;;;;3.33;1.38;;;;;;;;;;2090588;28;20129;-69
2022/11/12 01:07:39;;;;;;;8.85;1.80;;;;;;;;;;2089083;28;20120;-69
2022/11/12 01:08:57;;;;;;;5.32;1.73;;;;;;;;;;2092596;28;20029;-70
2022/11/12 01:10:16;;;;;;;2.97;1.10;;;;;;;;;;2092245;28;20037;-69
2022/11/12 01:11:36;;;;;;;3.28;1.20;;;;;;;;;;2084853;28;20104;-71
2022/11/12 01:12:54;;;;;;;6.55;1.63;;;;;;;;;;2087858;28;20033;-70
2022/11/12 01:14:13;;;;;;;4.45;1.80;;;;;;;;;;2092384;28;20033;-70
2022/11/12 01:15:32;;;;;;;4.88;1.70;;;;;;;;;;2088671;28;20021;-70
2022/11/12 01:16:51;;;;;;;7.07;1.80;;;;;;;;;;2089945;28;20536;-69
2022/11/12 01:18:10;;;;;;;4.63;1.83;;;;;;;;;;2087834;28;20501;-70
2022/11/12 01:19:29;;;;;;;5.10;1.63;;;;;;;;;;2093227;28;20025;-70
2022/11/12 01:20:48;;;;;;;4.60;1.90;;;;;;;;;;2092800;28;20080;-70
2022/11/12 01:22:07;;;;;;;10.35;1.70;;;;;;;;;;2089133;28;20025;-70
2022/11/12 01:23:25;;;;;;;4.80;1.70;;;;;;;;;;2091624;28;20029;-69
2022/11/12 01:24:44;;;;;;;7.65;1.63;;;;;;;;;;2092906;28;20100;-69
2022/11/12 01:26:04;;;;;;;6.50;1.52;;;;;;;;;;2089513;28;20051;-70
2022/11/12 01:27:23;;;;;;;6.75;1.85;;;;;;;;;;2092876;28;20017;-70
2022/11/12 01:28:42;;;;;;;7.00;1.77;;;;;;;;;;2092147;28;20040;-69
2022/11/12 01:30:01;;;;;;;7.20;2.08;;;;;;;;;;2092505;28;20408;-70
2022/11/12 01:31:21;;;;;;;5.47;1.85;;;;;;;;;;2090137;28;20029;-70
2022/11/12 01:32:40;;;;;;;5.35;1.50;;;;;;;;;;2093118;28;20029;-69
2022/11/12 01:34:01;;;;;;;8.05;1.85;;;;;;;;;;2090181;28;20482;-69
2022/11/12 01:35:20;;;;;;;7.13;1.55;;;;;;;;;;2092646;28;20085;-69
2022/11/12 01:36:39;;;;;;;5.72;1.77;;;;;;;;;;2093193;28;20032;-70
2022/11/12 01:37:58;;;;;;;5.90;1.30;;;;;;;;;;2092704;28;20385;-71
2022/11/12 01:39:17;;;;;;;6.82;1.90;;;;;;;;;;2091018;28;20037;-71
2022/11/12 01:40:36;;;;;;;5.22;1.58;;;;;;;;;;2093401;28;20037;-70
2022/11/12 01:41:55;;;;;;;6.88;2.15;;;;;;;;;;2091511;28;20048;-70
2022/11/12 01:43:14;;;;;;;6.28;1.40;;;;;;;;;;2091456;28;20409;-70
2022/11/12 01:44:33;;;;;;;3.58;1.20;;;;;;;;;;2089806;28;20029;-70
2022/11/12 01:45:52;;;;;;;7.53;1.77;;;;;;;;;;2088137;28;20417;-70
2022/11/12 01:47:20;;;;;;;5.93;1.50;;;;;;;;;;2092190;28;20041;-71
2022/11/12 01:48:47;;;;;;;7.97;2.00;;;;;;;;;;2091914;28;20494;-70
2022/11/12 01:50:09;;;;;;;6.03;1.73;;;;;;;;;;2093567;28;20040;-70
2022/11/12 01:51:39;;;;;;;13.20;2.42;;;;;;;;;;2090568;28;20048;-71
2022/11/12 01:53:03;;;;;;;5.40;1.58;;;;;;;;;;2090022;28;20112;-71
2022/11/12 01:54:22;;;;;;;4.70;1.45;;;;;;;;;;2092711;28;20037;-70
2022/11/12 01:55:41;;;;;;;7.30;1.80;;;;;;;;;;2091842;28;20041;-71
2022/11/12 01:57:00;;;;;;;8.27;1.77;;;;;;;;;;2091625;28;20036;-71
2022/11/12 01:58:20;;;;;;;3.45;1.63;;;;;;;;;;2093453;28;20083;-71
2022/11/12 01:59:42;;;;;;;7.28;1.50;;;;;;;;;;2091058;28;20052;-71
2022/11/12 02:01:02;;;;;;;7.88;1.40;;;;;;;;;;2089520;28;20048;-72
2022/11/12 02:02:21;;;;;;;7.45;2.20;;;;;;;;;;2091427;28;20028;-71
2022/11/12 02:03:40;;;;;;;7.60;2.35;;;;;;;;;;2088991;28;20037;-71
2022/11/12 02:04:59;;;;;;;9.52;1.85;;;;;;;;;;2091231;28;20060;-71
2022/11/12 02:06:19;;;;;;;7.63;1.85;;;;;;;;;;2091346;28;20104;-70
2022/11/12 02:07:39;;;;;;;7.05;2.22;;;;;;;;;;2090524;28;20028;-71
2022/11/12 02:08:58;;;;;;;8.23;2.33;;;;;;;;;;2092059;28;20025;-71
2022/11/12 02:10:17;;;;;;;8.00;1.75;;;;;;;;;;2090441;28;20481;-71
2022/11/12 02:11:36;;;;;;;7.18;1.98;;;;;;;;;;2089425;28;20028;-71
2022/11/12 02:14:33;;;;;;;5.50;2.08;;;;;;;;;;2089169;28;20033;-70
2022/11/12 02:15:52;;;;;;;6.30;1.85;;;;;;;;;;2088471;28;20025;-70
2022/11/12 02:17:11;;;;;;;8.27;2.22;;;;;;;;;;2093475;28;20033;-70
2022/11/12 02:18:30;;;;;;;11.38;2.47;;;;;;;;;;2091742;28;20036;-70
2022/11/12 02:19:50;;;;;;;4.82;1.52;;;;;;;;;;2090671;28;20496;-70
2022/11/12 02:21:09;;;;;;;7.40;1.95;;;;;;;;;;2093125;28;20028;-70
2022/11/12 02:22:28;;;;;;;5.93;1.73;;;;;;;;;;2091779;28;20025;-71
2022/11/12 02:23:55;;;;;;;3.72;1.20;;;;;;;;;;2091574;28;20108;-70
2022/11/12 02:25:19;;;;;;;8.15;2.17;;;;;;;;;;2091992;28;20037;-71
2022/11/12 02:26:46;;;;;;;6.05;2.05;;;;;;;;;;2082740;28;20034;-70
2022/11/12 02:28:06;;;;;;;10.13;2.08;;;;;;;;;;2089712;28;20100;-70
2022/11/12 02:29:25;;;;;;;8.82;2.00;;;;;;;;;;2092102;28;20016;-71
2022/11/12 02:30:45;;;;;;;10.40;2.20;;;;;;;;;;2089350;28;20029;-70
2022/11/12 02:32:04;;;;;;;10.80;2.22;;;;;;;;;;2090526;28;20033;-70
2022/11/12 02:33:24;;;;;;;4.95;1.60;;;;;;;;;;2091549;28;20037;-71
2022/11/12 02:34:43;;;;;;;7.75;1.85;;;;;;;;;;2091503;28;20024;-71
2022/11/12 02:36:01;;;;;;;5.13;2.03;;;;;;;;;;2091377;28;20032;-70
2022/11/12 02:37:20;;;;;;;6.47;1.70;;;;;;;;;;2093001;28;20029;-70
2022/11/12 02:38:39;;;;;;;9.55;2.13;;;;;;;;;;2091302;28;20037;-71
2022/11/12 02:39:58;;;;;;;15.02;2.00;;;;;;;;;;2090003;28;20044;-71
2022/11/12 02:41:17;;;;;;;8.50;1.77;;;;;;;;;;2089510;28;20021;-71
2022/11/12 02:42:36;;;;;;;8.90;1.90;;;;;;;;;;2086813;28;20099;-70
2022/11/12 02:43:55;;;;;;;6.57;1.52;;;;;;;;;;2090545;28;20017;-70
2022/11/12 02:45:15;;;;;;;9.93;2.92;;;;;;;;;;2088340;28;20130;-71
2022/11/12 02:46:34;;;;;;;7.82;1.90;;;;;;;;;;2090090;28;20037;-71
2022/11/12 02:47:53;;;;;;;9.70;2.25;;;;;;;;;;2091909;28;20381;-71
2022/11/12 02:49:12;;;;;;;7.85;1.83;;;;;;;;;;2091614;28;20029;-70
2022/11/12 02:50:31;;;;;;;7.82;2.00;;;;;;;;;;2089679;28;20034;-71
2022/11/12 02:51:50;;;;;;;10.23;2.55;;;;;;;;;;2093222;28;20103;-71
2022/11/12 02:53:09;;;;;;;7.18;2.03;;;;;;;;;;2091389;28;20033;-70
2022/11/12 02:54:28;;;;;;;6.60;1.80;;;;;;;;;;2091432;28;20066;-70
2022/11/12 02:55:47;;;;;;;10.07;2.22;;;;;;;;;;2092924;28;20032;-71
2022/11/12 02:57:06;;;;;;;11.95;2.63;;;;;;;;;;2088131;28;20033;-71
2022/11/12 02:58:25;;;;;;;11.68;2.08;;;;;;;;;;2088190;28;20029;-70
2022/11/12 02:59:43;;;;;;;7.38;1.90;;;;;;;;;;2088659;28;20029;-71
2022/11/12 03:01:02;;;;;;;4.20;1.67;;;;;;;;;;2091042;28;20032;-70
2022/11/12 03:02:21;;;;;;;9.35;1.98;;;;;;;;;;2091468;28;20025;-71
2022/11/12 03:03:40;;;;;;;10.48;1.95;;;;;;;;;;2092282;28;20393;-71
2022/11/12 03:04:59;;;;;;;7.13;1.98;;;;;;;;;;2089811;28;20021;-71
2022/11/12 03:06:18;;;;;;;8.70;2.10;;;;;;;;;;2092765;28;20033;-71
2022/11/12 03:07:37;;;;;;;7.03;2.00;;;;;;;;;;2093347;28;20492;-70
2022/11/12 03:08:56;;;;;;;8.25;1.90;;;;;;;;;;2091391;28;20032;-70
2022/11/12 03:10:15;;;;;;;9.50;2.28;;;;;;;;;;2088009;28;20060;-70
2022/11/12 03:11:34;;;;;;;8.23;1.98;;;;;;;;;;2091093;28;20040;-70
2022/11/12 03:12:54;;;;;;;10.70;2.15;;;;;;;;;;2088973;28;20020;-70
2022/11/12 03:14:14;;;;;;;9.80;2.60;;;;;;;;;;2088907;28;20029;-71
2022/11/12 03:15:33;;;;;;;7.75;2.08;;;;;;;;;;2085124;28;20037;-71
2022/11/12 03:16:52;;;;;;;9.75;2.40;;;;;;;;;;2091311;28;20029;-70
2022/11/12 03:18:11;;;;;;;9.85;2.53;;;;;;;;;;2092343;28;20036;-71
2022/11/12 03:19:30;;;;;;;7.82;2.10;;;;;;;;;;2087632;28;20051;-70
2022/11/12 03:20:50;;;;;;;7.47;2.47;;;;;;;;;;2090892;28;20025;-71
2022/11/12 03:22:09;;;;;;;8.93;2.38;;;;;;;;;;2090806;28;20021;-70
2022/11/12 03:23:28;;;;;;;7.78;2.00;;;;;;;;;;2092135;28;20032;-71
2022/11/12 03:24:47;;;;;;;12.32;2.35;;;;;;;;;;2091362;28;20056;-71
2022/11/12 03:26:06;;;;;;;8.73;2.00;;;;;;;;;;2088030;28;20057;-71
2022/11/12 03:27:25;;;;;;;7.68;2.40;;;;;;;;;;2089714;28;20037;-71
2022/11/12 03:28:44;;;;;;;9.45;2.90;;;;;;;;;;2090150;28;20029;-72
2022/11/12 03:30:03;;;;;;;6.78;2.05;;;;;;;;;;2087758;28;20037;-71
2022/11/12 03:31:22;;;;;;;11.00;2.55;;;;;;;;;;2091413;28;20033;-71
2022/11/12 03:32:41;;;;;;;14.40;2.67;;;;;;;;;;2088052;28;20029;-71
2022/11/12 03:34:00;;;;;;;8.05;2.38;;;;;;;;;;2092576;28;20033;-71
2022/11/12 03:35:19;;;;;;;8.85;1.70;;;;;;;;;;2091651;28;20034;-70
2022/11/12 03:36:38;;;;;;;9.50;2.38;;;;;;;;;;2090977;28;20115;-70
2022/11/12 03:37:57;;;;;;;9.07;2.50;;;;;;;;;;2088096;28;20029;-71
2022/11/12 03:39:16;;;;;;;8.32;2.00;;;;;;;;;;2091364;28;20025;-71
2022/11/12 03:40:35;;;;;;;16.50;3.53;;;;;;;;;;2089219;28;20028;-71
2022/11/12 03:41:54;;;;;;;7.43;2.22;;;;;;;;;;2087984;28;20025;-71
2022/11/12 03:43:13;;;;;;;9.23;2.10;;;;;;;;;;2087160;28;20029;-70
2022/11/12 03:44:32;;;;;;;11.43;2.35;;;;;;;;;;2091252;28;20473;-70
2022/11/12 03:45:51;;;;;;;8.75;1.83;;;;;;;;;;2090262;28;20482;-71
2022/11/12 03:47:09;;;;;;;9.45;2.22;;;;;;;;;;2091406;28;20060;-70
2022/11/12 03:48:28;;;;;;;11.13;2.10;;;;;;;;;;2091814;28;20033;-70
2022/11/12 03:49:47;;;;;;;12.77;2.58;;;;;;;;;;2090876;28;20108;-70
2022/11/12 03:51:06;;;;;;;6.82;2.28;;;;;;;;;;2095885;28;20021;-70
2022/11/12 03:52:26;;;;;;;10.77;2.45;;;;;;;;;;2088511;28;20053;-70
2022/11/12 03:53:45;;;;;;;9.38;2.28;;;;;;;;;;2092240;28;20032;-71
2022/11/12 03:55:05;;;;;;;7.60;2.35;;;;;;;;;;2091648;28;20040;-70
2022/11/12 03:56:23;;;;;;;14.63;3.55;;;;;;;;;;2090312;28;20044;-70
2022/11/12 03:57:42;;;;;;;6.57;2.03;;;;;;;;;;2091022;28;20037;-71
2022/11/12 03:59:01;;;;;;;7.57;2.05;;;;;;;;;;2091856;28;20029;-70
2022/11/12 04:00:21;;;;;;;12.55;2.30;;;;;;;;;;2087769;28;20040;-70
2022/11/12 04:01:40;;;;;;;8.50;2.53;;;;;;;;;;2091129;28;20033;-70
2022/11/12 04:02:59;;;;;;;10.48;2.33;;;;;;;;;;2090845;28;20108;-70
2022/11/12 04:04:18;;;;;;;9.90;2.35;;;;;;;;;;2090198;28;20029;-70
2022/11/12 04:08:52;;;;;;;6.75;1.92;;;;;;;;;;2092236;28;20028;-70
2022/11/12 04:10:11;;;;;;;11.50;2.85;;;;;;;;;;2091798;28;20037;-71
2022/11/12 04:11:30;;;;;;;9.02;2.25;;;;;;;;;;2089252;28;20091;-70
2022/11/12 04:14:27;;;;;;;8.25;2.17;;;;;;;;;;2093527;28;20033;-70
2022/11/12 04:21:49;;;;;;;13.40;1.95;;;;;;;;;;2090291;28;20024;-70
2022/11/12 04:22:24;;;;;;;5.68;1.55;;;;;;;;;;2098270;28;20519;-70
2022/11/12 04:23:43;;;;;;;9.90;1.92;;;;;;;;;;2093427;28;20013;-70
2022/11/12 04:26:40;;;;;;;9.30;1.88;;;;;;;;;;2090053;28;20497;-69
2022/11/12 04:27:59;;;;;;;9.27;2.67;;;;;;;;;;2093059;28;20029;-70
2022/11/12 04:30:55;;;;;;;9.43;2.35;;;;;;;;;;2090908;28;20029;-70
2022/11/12 04:32:15;;;;;;;8.95;2.58;;;;;;;;;;2091717;28;20025;-70
2022/11/12 04:33:34;;;;;;;9.10;2.50;;;;;;;;;;2094131;28;20029;-70
2022/11/12 04:34:53;;;;;;;10.32;2.63;;;;;;;;;;2093678;28;20381;-70
2022/11/12 04:36:12;;;;;;;8.40;2.90;;;;;;;;;;2092486;28;20028;-71
2022/11/12 04:37:43;;;;;;;10.35;2.70;;;;;;;;;;2093357;28;20485;-71
2022/11/12 04:39:02;;;;;;;10.88;2.22;;;;;;;;;;2087806;28;20041;-70
2022/11/12 04:45:19;;;;;;;9.80;2.00;;;;;;;;;;2091983;28;20029;-70
2022/11/12 04:46:38;;;;;;;13.60;2.67;;;;;;;;;;2092836;28;20029;-70
2022/11/12 04:47:57;;;;;;;13.02;2.80;;;;;;;;;;2093556;28;20020;-71
2022/11/12 04:49:16;;;;;;;11.45;2.85;;;;;;;;;;2092607;28;20033;-71
2022/11/12 04:50:35;;;;;;;8.70;2.17;;;;;;;;;;2091172;28;20033;-71
2022/11/12 04:52:06;;;;;;;8.07;2.30;;;;;;;;;;2091196;28;20115;-71
2022/11/12 04:53:29;;;;;;;19.08;2.95;;;;;;;;;;2090379;28;20021;-71
2022/11/12 04:54:48;;;;;;;15.00;2.08;;;;;;;;;;2092586;28;20095;-71
2022/11/12 04:56:06;;;;;;;10.90;2.90;;;;;;;;;;2089924;28;20037;-71
2022/11/12 04:57:26;;;;;;;10.40;2.53;;;;;;;;;;2092488;28;20037;-71
2022/11/12 04:58:44;;;;;;;9.30;2.00;;;;;;;;;;2091271;28;20029;-71
2022/11/12 05:00:04;;;;;;;10.55;2.58;;;;;;;;;;2092198;28;20029;-71
2022/11/12 05:01:23;;;;;;;12.32;2.70;;;;;;;;;;2092369;28;20029;-71
2022/11/12 05:02:42;;;;;;;11.68;2.80;;;;;;;;;;2093525;28;20024;-71
2022/11/12 05:04:01;;;;;;;11.27;2.63;;;;;;;;;;2092073;28;20485;-71
2022/11/12 05:05:20;;;;;;;9.82;2.92;;;;;;;;;;2092066;28;20107;-70
2022/11/12 05:06:52;;;;;;;13.48;2.22;;;;;;;;;;2092042;28;20017;-71
2022/11/12 05:08:11;;;;;;;8.35;2.28;;;;;;;;;;2093424;28;20502;-71
2022/11/12 05:09:30;;;;;;;13.70;2.72;;;;;;;;;;2091553;28;20033;-71
2022/11/12 05:10:49;;;;;;;15.27;3.00;;;;;;;;;;2088499;28;20025;-71
2022/11/12 05:12:08;;;;;;;10.48;3.13;;;;;;;;;;2092100;28;20064;-71
2022/11/12 05:13:28;;;;;;;10.95;2.42;;;;;;;;;;2092927;28;20016;-71
2022/11/12 05:14:47;;;;;;;13.57;2.15;;;;;;;;;;2088299;28;20024;-71
2022/11/12 05:16:06;;;;;;;16.90;3.40;;;;;;;;;;2091570;28;20029;-71
2022/11/12 05:17:24;;;;;;;5.45;1.52;;;;;;;;;;2091391;28;20037;-71
2022/11/12 05:18:44;;;;;;;12.45;3.22;;;;;;;;;;2092684;28;20029;-71
2022/11/12 05:20:03;;;;;;;9.38;2.10;;;;;;;;;;2092870;28;20028;-71
2022/11/12 05:22:59;;;;;;;20.05;3.17;;;;;;;;;;2094043;28;20458;-70
2022/11/12 05:24:18;;;;;;;13.68;2.92;;;;;;;;;;2091410;28;20029;-71
2022/11/12 05:25:37;;;;;;;11.27;2.90;;;;;;;;;;2091172;28;20029;-71
2022/11/12 05:26:56;;;;;;;12.10;2.92;;;;;;;;;;2090686;28;20036;-71
2022/11/12 05:28:15;;;;;;;11.05;3.17;;;;;;;;;;2091967;28;20041;-71
2022/11/12 05:29:34;;;;;;;11.25;2.80;;;;;;;;;;2092650;28;20120;-71
2022/11/12 05:30:53;;;;;;;14.70;3.25;;;;;;;;;;2089957;28;20021;-71
2022/11/12 05:32:13;;;;;;;16.25;2.75;;;;;;;;;;2088985;28;20029;-71
2022/11/12 05:33:33;;;;;;;12.77;2.72;;;;;;;;;;2090786;28;20037;-71
2022/11/12 05:34:52;;;;;;;16.00;3.20;;;;;;;;;;2090411;28;20100;-74
2022/11/12 05:36:11;;;;;;;12.45;2.75;;;;;;;;;;2091616;28;20032;-71
2022/11/12 05:37:30;;;;;;;9.38;2.30;;;;;;;;;;2091524;28;20036;-71
2022/11/12 05:38:49;;;;;;;14.13;2.83;;;;;;;;;;2093227;28;20052;-70
2022/11/12 05:40:08;;;;;;;13.05;2.78;;;;;;;;;;2091815;28;20033;-71
2022/11/12 05:41:27;;;;;;;14.77;3.08;;;;;;;;;;2090209;28;20596;-71
2022/11/12 05:42:46;;;;;;;11.73;2.80;;;;;;;;;;2090983;28;20478;-71
2022/11/12 05:44:05;;;;;;;19.42;4.13;;;;;;;;;;2093298;28;20021;-72
2022/11/12 05:45:24;;;;;;;16.80;2.95;;;;;;;;;;2088889;28;20036;-71
2022/11/12 05:46:43;;;;;;;10.68;2.60;;;;;;;;;;2093533;28;20110;-71
2022/11/12 05:48:02;;;;;;;11.77;2.60;;;;;;;;;;2091712;28;20028;-71
2022/11/12 05:49:20;;;;;;;15.85;3.10;;;;;;;;;;2093502;28;20024;-70
2022/11/12 05:50:39;;;;;;;12.65;3.03;;;;;;;;;;2089741;28;20020;-70
2022/11/12 05:51:58;;;;;;;17.33;3.03;;;;;;;;;;2092917;28;20029;-70
2022/11/12 05:53:17;;;;;;;8.25;1.90;;;;;;;;;;2093438;28;20041;-70
2022/11/12 05:54:36;;;;;;;15.05;2.83;;;;;;;;;;2091146;28;20099;-70
2022/11/12 05:56:00;;;;;;;9.57;2.65;;;;;;;;;;2091180;28;20045;-70
2022/11/12 05:57:19;;;;;;;15.85;3.10;;;;;;;;;;2090863;28;20120;-71
2022/11/12 05:58:38;;;;;;;16.58;3.03;;;;;;;;;;2092621;28;20029;-70
2022/11/12 05:59:56;;;;;;;15.52;3.08;;;;;;;;;;2092109;28;20029;-71
2022/11/12 06:01:15;;;;;;;24.30;3.38;;;;;;;;;;2092946;28;20537;-72
2022/11/12 06:02:35;;;;;;;15.23;3.20;;;;;;;;;;2091924;28;20492;-72
2022/11/12 06:03:54;;;;;;;13.38;2.97;;;;;;;;;;2093302;28;20501;-71
2022/11/12 06:05:13;;;;;;;16.77;3.40;;;;;;;;;;2092252;28;20036;-71
2022/11/12 06:06:33;;;;;;;18.48;3.60;;;;;;;;;;2092155;28;20021;-72
2022/11/12 06:07:52;;;;;;;14.52;3.40;;;;;;;;;;2089522;28;20041;-71
2022/11/12 06:09:11;;;;;;;19.83;3.90;;;;;;;;;;2092654;28;20044;-71
2022/11/12 06:10:30;;;;;;;17.30;3.28;;;;;;;;;;2087923;28;20033;-70
2022/11/12 06:11:49;;;;;;;17.65;3.75;;;;;;;;;;2091742;28;20029;-70
2022/11/12 06:13:08;;;;;;;11.10;3.28;;;;;;;;;;2088343;28;20041;-69
2022/11/12 06:14:27;;;;;;;13.02;3.55;;;;;;;;;;2091066;28;20064;-70
2022/11/12 06:15:46;;;;;;;13.93;2.90;;;;;;;;;;2091482;28;20103;-71
2022/11/12 06:17:05;;;;;;;17.67;4.15;;;;;;;;;;2091321;28;20036;-71
2022/11/12 06:18:24;;;;;;;16.48;3.38;;;;;;;;;;2091003;28;20028;-70
2022/11/12 06:19:43;;;;;;;22.73;3.70;;;;;;;;;;2088682;28;20492;-70
2022/11/12 06:21:18;;;;;;;16.00;3.25;;;;;;;;;;2092104;28;20024;-70
2022/11/12 06:22:37;;;;;;;16.20;3.03;;;;;;;;;;2089922;28;20025;-70
2022/11/12 06:23:57;;;;;;;17.50;3.10;;;;;;;;;;2092583;28;20029;-70
2022/11/12 06:25:16;;;;;;;16.48;3.10;;;;;;;;;;2091106;28;20020;-70
2022/11/12 06:26:36;;;;;;;20.02;3.58;;;;;;;;;;2093105;28;20025;-69
2022/11/12 06:27:55;;;;;;;15.90;3.50;;;;;;;;;;2087545;28;20489;-69
2022/11/12 06:29:14;;;;;;;22.70;3.80;;;;;;;;;;2090610;28;20041;-70
2022/11/12 06:30:33;;;;;;;18.70;3.67;;;;;;;;;;2091631;28;20104;-71
2022/11/12 06:31:52;;;;;;;15.00;3.25;;;;;;;;;;2091424;28;20452;-71
2022/11/12 06:33:11;;;;;;;15.07;3.53;;;;;;;;;;2089750;28;20378;-70
2022/11/12 06:34:30;;;;;;;19.73;3.65;;;;;;;;;;2093856;28;20029;-70
2022/11/12 06:35:55;;;;;;;15.07;3.78;;;;;;;;;;2091358;28;20025;-70
2022/11/12 06:37:14;;;;;;;17.17;3.58;;;;;;;;;;2088930;28;20802;-70
2022/11/12 06:38:35;;;;;;;11.40;3.17;;;;;;;;;;2090802;28;20029;-70
2022/11/12 06:39:53;;;;;;;18.58;3.78;;;;;;;;;;2090575;28;20029;-70
2022/11/12 06:41:13;;;;;;;15.13;2.90;;;;;;;;;;2088568;28;20024;-70
2022/11/12 06:42:32;;;;;;;19.45;3.55;;;;;;;;;;2090017;28;20033;-70
2022/11/12 06:43:51;;;;;;;27.50;4.63;;;;;;;;;;2090548;28;20895;-70
2022/11/12 06:45:09;;;;;;;20.00;3.80;;;;;;;;;;2089661;28;20394;-70
2022/11/12 06:46:28;;;;;;;14.00;3.92;;;;;;;;;;2092828;28;20033;-70
2022/11/12 06:47:47;;;;;;;20.63;3.92;;;;;;;;;;2090149;28;20499;-70
2022/11/12 06:49:06;;;;;;;18.23;3.60;;;;;;;;;;2091439;28;20397;-70
2022/11/12 06:50:25;;;;;;;15.73;3.67;;;;;;;;;;2089620;28;20025;-70
2022/11/12 06:51:44;;;;;;;11.30;3.28;;;;;;;;;;2092371;28;20029;-70
2022/11/12 06:53:03;;;;;;;15.20;3.10;;;;;;;;;;2091444;28;20505;-70
2022/11/12 06:54:21;;;;;;;23.08;4.57;;;;;;;;;;2092442;28;20033;-69
2022/11/12 06:55:40;;;;;;;13.63;3.40;;;;;;;;;;2089427;28;20075;-70
2022/11/12 06:57:00;;;;;;;15.77;2.65;;;;;;;;;;2087197;28;20029;-71
2022/11/12 06:58:18;;;;;;;19.95;3.65;;;;;;;;;;2090577;28;20060;-70
2022/11/12 06:59:37;;;;;;;22.63;4.32;;;;;;;;;;2091215;28;20025;-70
2022/11/12 07:00:56;;;;;;;19.83;3.60;;;;;;;;;;2090638;28;20021;-70
2022/11/12 07:02:15;;;;;;;21.38;4.35;;;;;;;;;;2090706;28;20030;-70
2022/11/12 07:03:34;;;;;;;13.07;3.25;;;;;;;;;;2090300;28;20066;-71
2022/11/12 07:04:53;;;;;;;15.52;3.97;;;;;;;;;;2091025;28;20447;-70
2022/11/12 07:06:14;;;;;;;17.88;3.42;;;;;;;;;;2093087;28;20021;-70
2022/11/12 07:07:33;;;;;;;14.32;2.92;;;;;;;;;;2090683;28;20037;-70
2022/11/12 07:08:52;;;;;;;19.80;3.55;;;;;;;;;;2086557;28;20442;-70
2022/11/12 07:10:10;;;;;;;16.27;3.17;;;;;;;;;;2091784;28;20076;-70
2022/11/12 07:11:29;;;;;;;18.77;3.58;;;;;;;;;;2088054;28;20491;-70
2022/11/12 07:12:48;;;;;;;14.93;3.60;;;;;;;;;;2091338;28;20059;-70
2022/11/12 07:14:07;;;;;;;13.52;3.70;;;;;;;;;;2091551;28;20029;-70
2022/11/12 07:15:26;;;;;;;14.50;2.85;;;;;;;;;;2090328;28;20026;-70
2022/11/12 07:16:45;;;;;;;16.83;3.42;;;;;;;;;;2090002;28;20021;-71
2022/11/12 07:18:04;;;;;;;18.92;3.75;;;;;;;;;;2088007;28;20029;-70
2022/11/12 07:19:23;;;;;;;21.00;3.30;;;;;;;;;;2090154;28;20438;-70
2022/11/12 07:20:42;;;;;;;22.35;3.42;;;;;;;;;;2088312;28;20061;-69
2022/11/12 07:22:01;;;;;;;16.52;3.38;;;;;;;;;;2090439;28;20025;-70
2022/11/12 07:23:19;;;;;;;18.88;3.72;;;;;;;;;;2091660;28;20025;-69
2022/11/12 07:24:38;;;;;;;20.73;4.28;;;;;;;;;;2090454;28;20029;-70
2022/11/12 07:25:58;;;;;;;15.35;3.35;;;;;;;;;;2091683;28;20025;-70
2022/11/12 07:27:17;;;;;;;16.77;3.92;;;;;;;;;;2090631;28;20021;-69
2022/11/12 07:28:36;;;;;;;14.65;3.35;;;;;;;;;;2092397;28;20032;-69
2022/11/12 07:29:55;;;;;;;13.60;2.83;;;;;;;;;;2092617;28;20029;-69
2022/11/12 07:31:15;;;;;;;13.77;2.78;;;;;;;;;;2092275;28;20024;-69
2022/11/12 07:32:34;;;;;;;20.70;3.92;;;;;;;;;;2092496;28;20033;-69
2022/11/12 07:33:52;;;;;;;13.93;3.13;;;;;;;;;;2092554;28;20068;-69
2022/11/12 07:35:12;;;;;;;14.95;3.72;;;;;;;;;;2090878;28;20095;-69
2022/11/12 07:36:31;;;;;;;22.63;3.97;;;;;;;;;;2089442;28;20029;-70
2022/11/12 07:37:50;;;;;;;17.40;3.60;;;;;;;;;;2091722;28;20037;-70
2022/11/12 07:39:09;;;;;;;13.40;3.70;;;;;;;;;;2091324;28;20060;-70
2022/11/12 07:40:28;;;;;;;11.85;3.22;;;;;;;;;;2092811;28;20040;-70
2022/11/12 07:41:47;;;;;;;13.63;3.78;;;;;;;;;;2089858;28;20037;-69
2022/11/12 07:43:06;;;;;;;16.42;3.03;;;;;;;;;;2092175;28;20029;-69
2022/11/12 07:44:25;;;;;;;16.35;3.05;;;;;;;;;;2089635;28;20057;-70
2022/11/12 07:45:44;;;;;;;18.67;3.80;;;;;;;;;;2088588;28;20045;-71
2022/11/12 07:47:03;;;;;;;15.38;3.72;;;;;;;;;;2089459;28;20032;-70
2022/11/12 07:48:22;;;;;;;11.45;3.60;;;;;;;;;;2087085;28;20115;-71
2022/11/12 07:49:41;;;;;;;20.50;2.88;;;;;;;;;;2092333;28;20111;-70
2022/11/12 07:51:04;;;;;;;16.90;3.53;;;;;;;;;;2089426;28;20485;-70
2022/11/12 07:52:23;;;;;;;16.58;3.90;;;;;;;;;;2091103;28;20041;-69
2022/11/12 07:53:42;;;;;;;13.30;2.72;;;;;;;;;;2091885;28;20121;-69
2022/11/12 07:55:01;;;;;;;17.20;3.70;;;;;;;;;;2089185;28;20049;-71
2022/11/12 07:56:21;;;;;;;16.65;3.42;;;;;;;;;;2085837;28;20029;-70
2022/11/12 07:57:40;;;;;;;16.80;3.53;;;;;;;;;;2089428;28;20036;-70
2022/11/12 07:58:59;;;;;;;15.82;2.97;;;;;;;;;;2093672;28;20038;-70
2022/11/12 08:00:18;;;;;;;19.45;3.30;;;;;;;;;;2086329;28;20033;-69
2022/11/12 08:01:38;;;;;;;13.88;3.25;;;;;;;;;;2088928;28;20052;-70
2022/11/12 08:03:00;;;;;;;18.33;3.60;;;;;;;;;;2089079;28;20024;-69
2022/11/12 08:04:19;;;;;;;11.10;2.60;;;;;;;;;;2090627;28;20025;-70
2022/11/12 08:05:38;;;;;;;17.00;3.70;;;;;;;;;;2090218;28;20385;-70
2022/11/12 08:06:57;;;;;;;17.08;3.25;;;;;;;;;;2091474;28;20539;-70
2022/11/12 08:08:16;;;;;;;13.80;3.58;;;;;;;;;;2090459;28;20033;-69
2022/11/12 08:09:34;;;;;;;18.88;3.38;;;;;;;;;;2089520;28;20112;-70
2022/11/12 08:10:55;;;;;;;16.40;3.47;;;;;;;;;;2089661;28;20017;-69
2022/11/12 08:12:14;;;;;;;15.57;3.22;;;;;;;;;;2089276;28;20060;-70
2022/11/12 08:13:33;;;;;;;15.90;3.17;;;;;;;;;;2092915;28;20032;-69